Time;durP1;ratioP1;P1;durP2;ratioP2;P2;SDS_P1;SDS_P2;PMS_P1;PMS_P2;Temp;Humidity;BMP_temperature;BMP_pressure;BME280_temperature;BME280_humidity;BME280_pressure;Samples;Min_cycle;Max_cycle;Signal;HPM_P1;HPM_P2
2021/04/03 00:00:04;;;;;;;24.20;7.70;;;5.30;99.90;;;;;;5000340;28;20921;-48
2021/04/03 00:02:31;;;;;;;16.27;6.70;;;5.30;99.90;;;;;;5009519;28;20467;-43
2021/04/03 00:04:58;;;;;;;13.87;7.07;;;5.20;99.90;;;;;;5019193;28;20471;-41
2021/04/03 00:07:24;;;;;;;13.03;6.03;;;5.10;99.90;;;;;;5009651;28;20558;-43
2021/04/03 00:09:51;;;;;;;23.03;6.60;;;5.10;99.90;;;;;;5014782;28;20480;-43
2021/04/03 00:12:18;;;;;;;9.30;6.27;;;5.00;99.90;;;;;;5011287;28;20472;-45
2021/04/03 00:14:45;;;;;;;14.20;6.50;;;5.00;99.90;;;;;;5016142;28;21533;-42
2021/04/03 00:17:11;;;;;;;19.17;7.20;;;5.00;99.90;;;;;;5016134;28;20471;-42
2021/04/03 00:19:39;;;;;;;13.87;7.10;;;5.00;99.90;;;;;;5017400;28;20923;-43
2021/04/03 00:22:06;;;;;;;13.13;8.17;;;5.00;99.90;;;;;;4999937;28;20469;-42
2021/04/03 00:24:32;;;;;;;12.30;7.10;;;5.00;99.90;;;;;;5002489;28;20467;-46
2021/04/03 00:26:59;;;;;;;17.73;6.97;;;5.00;99.90;;;;;;5018892;28;20583;-44
2021/04/03 00:29:26;;;;;;;15.50;6.50;;;4.90;99.90;;;;;;5008520;28;20496;-43
2021/04/03 00:31:52;;;;;;;17.33;6.70;;;5.00;99.90;;;;;;4999643;28;20465;-45
2021/04/03 00:34:21;;;;;;;18.80;6.47;;;4.90;99.90;;;;;;5002832;28;20804;-50
2021/04/03 00:36:49;;;;;;;16.80;7.67;;;4.90;99.90;;;;;;4999815;28;20468;-46
2021/04/03 00:39:15;;;;;;;15.53;7.47;;;4.90;99.90;;;;;;5002179;28;20547;-42
2021/04/03 00:41:42;;;;;;;15.63;6.53;;;4.80;99.90;;;;;;4999519;28;20464;-44
2021/04/03 00:44:11;;;;;;;9.80;5.20;;;4.80;99.90;;;;;;5001992;28;20485;-42
2021/04/03 00:46:38;;;;;;;22.07;8.27;;;4.80;99.90;;;;;;4998500;28;20624;-46
2021/04/03 00:49:06;;;;;;;17.50;7.50;;;4.80;99.90;;;;;;5001982;28;20472;-42
2021/04/03 00:51:32;;;;;;;28.30;9.77;;;4.90;99.90;;;;;;4998974;28;20465;-46
2021/04/03 00:54:00;;;;;;;12.37;6.83;;;4.90;99.90;;;;;;5017339;28;20464;-45
2021/04/03 00:56:27;;;;;;;13.73;8.50;;;4.90;99.90;;;;;;5015909;28;20510;-42
2021/04/03 00:58:55;;;;;;;15.60;8.13;;;4.90;99.90;;;;;;4998864;28;20964;-45
2021/04/03 01:01:21;;;;;;;13.87;7.23;;;4.90;99.90;;;;;;5002165;28;20890;-43
2021/04/03 01:03:51;;;;;;;12.90;6.80;;;4.90;1.00;;;;;;5002798;28;20742;-44
2021/04/03 01:06:17;;;;;;;26.83;9.17;;;4.80;1.00;;;;;;5018165;28;20504;-42
2021/04/03 01:08:45;;;;;;;20.90;9.40;;;4.80;1.00;;;;;;5010219;28;20489;-42
2021/04/03 01:11:13;;;;;;;23.67;11.47;;;4.90;1.00;;;;;;5000389;28;20477;-42
2021/04/03 01:14:06;;;;;;;18.50;12.50;;;4.80;1.00;;;;;;5007811;28;20504;-46
2021/04/03 01:16:38;;;;;;;20.90;10.77;;;4.80;1.00;;;;;;5008177;28;20548;-43
2021/04/03 01:19:25;;;;;;;27.00;11.50;;;4.80;1.00;;;;;;4998844;28;20821;-44
2021/04/03 01:22:17;;;;;;;19.00;9.37;;;4.80;1.00;;;;;;5011870;28;20459;-42
2021/04/03 01:25:00;;;;;;;16.70;8.03;;;4.90;1.00;;;;;;4999029;28;20492;-41
2021/04/03 01:27:29;;;;;;;18.27;7.13;;;4.70;99.90;;;;;;5001314;28;20468;-42
2021/04/03 01:30:16;;;;;;;15.43;7.50;;;4.70;99.90;;;;;;4998732;28;20468;-45
2021/04/03 01:32:48;;;;;;;13.80;6.77;;;4.80;99.90;;;;;;5001782;28;20527;-45
2021/04/03 01:35:18;;;;;;;13.20;6.50;;;4.70;99.90;;;;;;4998058;28;20453;-43
2021/04/03 01:37:49;;;;;;;13.40;6.10;;;4.70;99.90;;;;;;5016572;28;20532;-44
2021/04/03 01:40:20;;;;;;;12.97;6.33;;;4.60;99.90;;;;;;5014542;28;20457;-43
2021/04/03 01:42:53;;;;;;;13.80;5.77;;;4.60;99.90;;;;;;4998887;28;20563;-49
2021/04/03 01:45:23;;;;;;;10.07;5.63;;;4.50;99.90;;;;;;5001174;28;20568;-46
2021/04/03 01:47:51;;;;;;;18.20;5.07;;;4.50;99.70;;;;;;4998256;28;20527;-45
2021/04/03 01:50:20;;;;;;;13.90;4.30;;;4.50;94.20;;;;;;5001632;28;20968;-47
2021/04/03 01:52:48;;;;;;;9.17;4.50;;;4.50;48.80;;;;;;4997928;28;20468;-44
2021/04/03 01:55:16;;;;;;;24.03;7.23;;;4.50;1.00;;;;;;5000967;28;20469;-42
2021/04/03 01:57:48;;;;;;;15.47;5.93;;;4.40;1.00;;;;;;4997678;28;20471;-41
2021/04/03 02:00:18;;;;;;;17.63;5.13;;;4.50;1.00;;;;;;5001036;28;20563;-43
2021/04/03 02:02:46;;;;;;;17.37;5.23;;;4.40;1.00;;;;;;4996262;28;20792;-45
2021/04/03 02:05:14;;;;;;;12.23;4.23;;;4.40;1.00;;;;;;5011679;28;20498;-43
2021/04/03 02:07:43;;;;;;;11.97;4.40;;;4.30;1.00;;;;;;5011719;28;20472;-43
2021/04/03 02:10:12;;;;;;;12.67;4.43;;;4.30;1.40;;;;;;5017421;28;20456;-42
2021/04/03 02:12:40;;;;;;;17.53;5.03;;;4.30;1.00;;;;;;5011465;28;20490;-44
2021/04/03 02:15:09;;;;;;;16.03;4.83;;;4.40;4.60;;;;;;5017297;28;20464;-45
2021/04/03 02:17:38;;;;;;;16.23;4.77;;;4.30;1.00;;;;;;5011782;28;20503;-42
2021/04/03 02:20:07;;;;;;;12.03;4.53;;;4.40;1.00;;;;;;5017593;28;20913;-47
2021/04/03 02:22:35;;;;;;;16.40;5.30;;;4.40;1.20;;;;;;5013225;28;20477;-42
2021/04/03 02:25:06;;;;;;;13.23;5.03;;;4.40;1.00;;;;;;5017191;28;20475;-43
2021/04/03 02:27:34;;;;;;;14.07;4.83;;;4.40;1.00;;;;;;5001315;28;20469;-42
2021/04/03 02:30:12;;;;;;;12.97;4.90;;;4.40;1.00;;;;;;4997407;28;20469;-45
2021/04/03 02:32:45;;;;;;;12.13;5.33;;;4.40;1.00;;;;;;4997415;28;20929;-42
2021/04/03 02:35:15;;;;;;;19.80;5.40;;;4.40;1.00;;;;;;4998417;28;20518;-41
2021/04/03 02:37:42;;;;;;;13.90;5.23;;;4.50;1.00;;;;;;5017068;28;20463;-43
2021/04/03 02:40:11;;;;;;;18.50;5.23;;;4.40;1.00;;;;;;5011199;28;20461;-44
2021/04/03 02:42:41;;;;;;;13.87;4.80;;;4.40;1.00;;;;;;4998068;28;20874;-43
2021/04/03 02:45:11;;;;;;;11.47;5.20;;;4.50;1.00;;;;;;5004277;28;20906;-42
2021/04/03 02:47:42;;;;;;;14.13;4.50;;;4.50;1.00;;;;;;5016978;28;20905;-42
2021/04/03 02:50:16;;;;;;;14.80;5.10;;;4.60;1.00;;;;;;5011993;28;20555;-45
2021/04/03 02:52:48;;;;;;;20.23;4.40;;;4.50;1.00;;;;;;5017424;28;20518;-42
2021/04/03 02:55:16;;;;;;;18.20;4.53;;;4.50;1.00;;;;;;5001470;28;20461;-42
2021/04/03 02:57:44;;;;;;;18.90;5.23;;;4.50;1.00;;;;;;4997100;28;20509;-42
2021/04/03 03:00:12;;;;;;;15.90;6.10;;;4.60;1.00;;;;;;5015377;28;20554;-49
2021/04/03 03:02:39;;;;;;;19.70;5.47;;;4.60;1.00;;;;;;5009520;28;21020;-42
2021/04/03 03:05:08;;;;;;;7.87;4.37;;;4.50;1.00;;;;;;5010916;28;20495;-42
2021/04/03 03:07:39;;;;;;;25.93;6.33;;;4.40;1.00;;;;;;5010819;28;20464;-43
2021/04/03 03:10:07;;;;;;;12.83;5.17;;;4.50;1.00;;;;;;5017215;28;20456;-47
2021/04/03 03:12:35;;;;;;;13.73;4.87;;;4.40;1.00;;;;;;5014204;28;20882;-42
2021/04/03 03:15:04;;;;;;;12.47;4.73;;;4.40;1.00;;;;;;5020604;28;20927;-42
2021/04/03 03:17:31;;;;;;;11.30;4.63;;;4.40;1.00;;;;;;5014692;28;20924;-42
2021/04/03 03:20:01;;;;;;;13.33;4.93;;;4.40;1.00;;;;;;5020593;28;20557;-42
2021/04/03 03:22:28;;;;;;;14.20;4.80;;;4.50;1.00;;;;;;5018506;28;20840;-46
2021/04/03 03:24:56;;;;;;;15.10;5.77;;;4.30;1.00;;;;;;5018781;28;20471;-42
2021/04/03 03:27:28;;;;;;;15.03;5.27;;;4.40;1.00;;;;;;5015674;28;20502;-42
2021/04/03 03:29:56;;;;;;;20.33;4.57;;;4.40;1.00;;;;;;5017189;28;21205;-42
2021/04/03 03:32:23;;;;;;;14.83;4.90;;;4.40;1.00;;;;;;5015410;28;20572;-44
2021/04/03 03:34:49;;;;;;;11.00;4.47;;;4.30;1.00;;;;;;5016868;28;20897;-42
2021/04/03 03:37:16;;;;;;;16.63;5.10;;;4.40;1.00;;;;;;5020084;28;20900;-43
2021/04/03 03:39:44;;;;;;;15.80;4.27;;;4.40;1.00;;;;;;5015250;28;20739;-42
2021/04/03 03:42:14;;;;;;;12.83;4.13;;;4.40;1.00;;;;;;5019528;28;20475;-43
2021/04/03 03:44:41;;;;;;;17.23;4.33;;;4.40;1.00;;;;;;5014349;28;20468;-46
2021/04/03 03:47:08;;;;;;;12.13;4.40;;;4.30;1.00;;;;;;5018919;28;20496;-43
2021/04/03 03:49:35;;;;;;;12.50;4.57;;;4.30;1.00;;;;;;5009210;28;20473;-43
2021/04/03 03:52:02;;;;;;;16.57;4.87;;;4.30;1.00;;;;;;5014736;28;20476;-44
2021/04/03 03:54:28;;;;;;;12.10;4.27;;;4.30;1.00;;;;;;5018343;28;20464;-44
2021/04/03 03:56:55;;;;;;;17.10;4.53;;;4.30;1.00;;;;;;5018874;28;20463;-41
2021/04/03 03:59:22;;;;;;;13.00;4.30;;;4.40;1.00;;;;;;5016571;28;20527;-42
2021/04/03 04:01:49;;;;;;;16.67;5.13;;;4.40;1.00;;;;;;5016901;28;20476;-42
2021/04/03 04:04:16;;;;;;;12.10;4.97;;;4.40;1.00;;;;;;5002687;28;20483;-42
2021/04/03 04:06:42;;;;;;;16.17;4.40;;;4.40;1.00;;;;;;5007749;28;20491;-43
2021/04/03 04:09:09;;;;;;;16.67;5.37;;;4.40;1.00;;;;;;5014492;28;20729;-44
2021/04/03 04:11:35;;;;;;;12.00;4.53;;;4.30;1.00;;;;;;5014141;28;20563;-43
2021/04/03 04:14:02;;;;;;;15.30;4.60;;;4.30;1.00;;;;;;5009384;28;20475;-46
2021/04/03 04:16:30;;;;;;;20.10;6.03;;;4.30;1.00;;;;;;5009966;28;20890;-42
2021/04/03 04:18:56;;;;;;;11.93;4.50;;;4.30;1.00;;;;;;5018905;28;20464;-42
2021/04/03 04:21:24;;;;;;;13.33;4.93;;;4.30;1.00;;;;;;5014231;28;20465;-43
2021/04/03 04:23:51;;;;;;;16.70;4.57;;;4.30;1.00;;;;;;5018305;28;20475;-47
2021/04/03 04:26:18;;;;;;;16.43;5.43;;;4.30;1.00;;;;;;5013317;28;20936;-46
2021/04/03 04:28:44;;;;;;;17.37;5.07;;;4.30;1.00;;;;;;5012702;28;20475;-42
2021/04/03 04:31:11;;;;;;;16.30;4.90;;;4.40;1.00;;;;;;5006480;28;20476;-45
2021/04/03 04:33:39;;;;;;;18.33;4.70;;;4.30;1.00;;;;;;5018170;28;20464;-42
2021/04/03 04:36:06;;;;;;;15.40;4.20;;;4.40;1.00;;;;;;5019317;28;20873;-42
2021/04/03 04:38:32;;;;;;;16.77;4.90;;;4.40;1.00;;;;;;5017274;28;20465;-43
2021/04/03 04:40:59;;;;;;;8.87;4.73;;;4.40;1.00;;;;;;5017755;28;20522;-42
2021/04/03 04:43:26;;;;;;;13.60;5.33;;;4.40;1.00;;;;;;5018644;28;20475;-43
2021/04/03 04:45:53;;;;;;;12.63;4.67;;;4.40;1.00;;;;;;5017408;28;21017;-43
2021/04/03 04:48:20;;;;;;;21.17;4.80;;;4.40;1.00;;;;;;5019115;28;20464;-44
2021/04/03 04:50:47;;;;;;;12.90;4.80;;;4.40;1.00;;;;;;5017216;28;20916;-42
2021/04/03 04:53:14;;;;;;;20.10;5.00;;;4.50;1.00;;;;;;5018617;28;20475;-45
2021/04/03 04:55:40;;;;;;;13.10;4.60;;;4.50;1.00;;;;;;5018068;28;20478;-42
2021/04/03 04:58:07;;;;;;;14.03;4.70;;;4.40;1.00;;;;;;5017894;28;20467;-44
2021/04/03 05:00:33;;;;;;;11.10;4.90;;;4.40;1.00;;;;;;5018315;28;20786;-45
2021/04/03 05:03:00;;;;;;;8.93;5.83;;;4.50;1.00;;;;;;5009446;28;20527;-47
2021/04/03 05:05:27;;;;;;;15.33;5.47;;;4.40;1.00;;;;;;5013186;28;20500;-42
2021/04/03 05:07:54;;;;;;;17.27;4.77;;;4.40;1.00;;;;;;5018033;28;20467;-42
2021/04/03 05:10:21;;;;;;;12.00;5.50;;;4.40;1.00;;;;;;5017236;28;20476;-44
2021/04/03 05:12:50;;;;;;;12.07;4.70;;;4.40;1.00;;;;;;5018628;28;20464;-45
2021/04/03 05:15:16;;;;;;;15.37;5.20;;;4.40;1.00;;;;;;5016952;28;20475;-42
2021/04/03 05:17:43;;;;;;;17.93;4.43;;;4.30;1.00;;;;;;5018555;28;20901;-42
2021/04/03 05:20:10;;;;;;;17.03;6.10;;;4.30;1.00;;;;;;5017298;28;20471;-42
2021/04/03 05:22:37;;;;;;;18.13;6.60;;;4.30;1.00;;;;;;5018251;28;20524;-44
2021/04/03 05:25:05;;;;;;;21.57;5.33;;;4.30;1.00;;;;;;5017224;28;20475;-42
2021/04/03 05:27:32;;;;;;;16.70;4.90;;;4.30;1.00;;;;;;5017280;28;20500;-45
2021/04/03 05:29:58;;;;;;;13.17;4.77;;;4.40;1.00;;;;;;5017772;28;20501;-42
2021/04/03 05:32:25;;;;;;;18.73;5.90;;;4.40;1.00;;;;;;5016917;28;20785;-43
2021/04/03 05:34:51;;;;;;;12.73;5.03;;;4.40;1.00;;;;;;5010877;28;20474;-46
2021/04/03 05:37:20;;;;;;;19.00;6.23;;;4.30;1.00;;;;;;5017402;28;20468;-42
2021/04/03 05:39:46;;;;;;;19.43;6.17;;;4.40;1.00;;;;;;5014890;28;20471;-42
2021/04/03 05:42:18;;;;;;;14.63;5.83;;;4.40;1.00;;;;;;5017204;28;20479;-44
2021/04/03 05:44:45;;;;;;;15.57;4.00;;;4.40;1.00;;;;;;5013278;28;20473;-42
2021/04/03 05:47:12;;;;;;;11.00;4.97;;;4.40;1.00;;;;;;5013968;28;20512;-41
2021/04/03 05:49:40;;;;;;;13.83;4.80;;;4.40;1.00;;;;;;5015673;28;20517;-42
2021/04/03 05:52:09;;;;;;;13.27;7.20;;;4.40;1.00;;;;;;5012953;28;20472;-41
2021/04/03 05:54:37;;;;;;;16.43;4.97;;;4.40;1.00;;;;;;5017581;28;20866;-46
2021/04/03 05:57:04;;;;;;;12.90;4.67;;;4.50;1.00;;;;;;5010511;28;20460;-42
2021/04/03 05:59:32;;;;;;;14.97;4.90;;;4.50;1.00;;;;;;5016524;28;20476;-45
2021/04/03 06:01:59;;;;;;;17.03;5.30;;;4.60;1.00;;;;;;5011812;28;20463;-44
2021/04/03 06:04:26;;;;;;;19.30;6.03;;;4.60;1.00;;;;;;5005292;28;20471;-42
2021/04/03 06:06:53;;;;;;;16.00;5.57;;;4.50;1.00;;;;;;5006710;28;20968;-42
2021/04/03 06:09:22;;;;;;;27.43;7.87;;;4.40;1.00;;;;;;5012655;28;20468;-42
2021/04/03 06:11:51;;;;;;;16.83;5.83;;;4.40;1.00;;;;;;5013632;28;20464;-42
2021/04/03 06:14:18;;;;;;;12.60;4.83;;;4.40;1.00;;;;;;5016266;28;20552;-42
2021/04/03 06:16:49;;;;;;;11.57;5.60;;;4.60;1.00;;;;;;5012874;28;20467;-42
2021/04/03 06:19:17;;;;;;;16.37;7.03;;;4.80;1.00;;;;;;5013652;28;20810;-42
2021/04/03 06:21:46;;;;;;;14.00;4.83;;;4.90;1.00;;;;;;5014766;28;20553;-44
2021/04/03 06:24:26;;;;;;;15.30;5.97;;;4.90;1.00;;;;;;5014077;28;20494;-42
2021/04/03 06:26:58;;;;;;;18.67;5.90;;;4.90;1.00;;;;;;5016311;28;20501;-42
2021/04/03 06:29:31;;;;;;;20.57;5.40;;;5.00;1.00;;;;;;5004989;28;20464;-43
2021/04/03 06:32:00;;;;;;;14.93;5.50;;;5.10;1.00;;;;;;5017176;28;20514;-42
2021/04/03 06:34:28;;;;;;;16.60;5.47;;;5.30;1.00;;;;;;5010488;28;20551;-42
2021/04/03 06:36:55;;;;;;;16.40;5.90;;;5.40;1.00;;;;;;5017654;28;20460;-42
2021/04/03 06:39:22;;;;;;;19.33;6.83;;;5.60;1.00;;;;;;5013112;28;20470;-45
2021/04/03 06:41:48;;;;;;;19.23;6.20;;;5.90;1.00;;;;;;5016287;28;20466;-43
2021/04/03 06:44:15;;;;;;;15.83;5.60;;;6.00;1.00;;;;;;5012607;28;20538;-44
2021/04/03 06:46:43;;;;;;;14.97;5.73;;;6.00;1.00;;;;;;5017116;28;20946;-49
2021/04/03 06:49:14;;;;;;;13.00;5.80;;;6.00;1.00;;;;;;5019695;28;20472;-46
2021/04/03 06:51:42;;;;;;;17.13;6.80;;;6.00;1.00;;;;;;5017372;28;20464;-43
2021/04/03 06:54:13;;;;;;;22.20;6.90;;;6.20;1.00;;;;;;5007775;28;20470;-45
2021/04/03 06:56:40;;;;;;;21.23;6.00;;;6.40;1.00;;;;;;5017506;28;20464;-43
2021/04/03 06:59:08;;;;;;;18.50;5.50;;;6.40;1.00;;;;;;5020562;28;20459;-43
2021/04/03 07:01:46;;;;;;;18.20;5.40;;;6.90;1.00;;;;;;5016209;28;20476;-45
2021/04/03 07:04:37;;;;;;;16.07;5.67;;;7.10;1.00;;;;;;5007338;28;20479;-42
2021/04/03 07:07:05;;;;;;;16.20;6.00;;;7.20;1.00;;;;;;5011149;28;20507;-46
2021/04/03 07:09:34;;;;;;;17.83;6.50;;;7.00;1.00;;;;;;5017147;28;20494;-44
2021/04/03 07:12:02;;;;;;;20.60;5.93;;;6.90;1.00;;;;;;5019103;28;20924;-45
2021/04/03 07:14:31;;;;;;;18.53;5.50;;;6.60;1.00;;;;;;5012259;28;20464;-43
2021/04/03 07:17:02;;;;;;;19.80;5.60;;;6.10;1.00;;;;;;5020469;28;20464;-43
2021/04/03 07:19:31;;;;;;;15.20;6.10;;;6.20;1.00;;;;;;5011545;28;20480;-43
2021/04/03 07:21:58;;;;;;;16.20;5.00;;;5.80;1.00;;;;;;5017213;28;20521;-43
2021/04/03 07:24:27;;;;;;;19.53;6.00;;;6.00;1.00;;;;;;5014134;28;20468;-42
2021/04/03 07:26:54;;;;;;;19.73;5.97;;;6.00;1.00;;;;;;5019535;28;20798;-43
2021/04/03 07:29:43;;;;;;;18.73;6.03;;;5.70;1.00;;;;;;5018287;28;20494;-44
2021/04/03 07:32:09;;;;;;;20.57;6.80;;;6.20;1.00;;;;;;5016102;28;20470;-42
2021/04/03 07:34:41;;;;;;;16.37;6.37;;;5.90;1.00;;;;;;5004018;28;20467;-47
2021/04/03 07:37:09;;;;;;;11.80;5.57;;;6.10;1.00;;;;;;5017903;28;20465;-42
2021/04/03 07:39:38;;;;;;;16.43;6.43;;;6.50;1.00;;;;;;5018758;28;20464;-42
2021/04/03 07:42:06;;;;;;;12.33;5.10;;;7.20;1.00;;;;;;5002257;28;20465;-43
2021/04/03 07:44:34;;;;;;;15.87;5.50;;;7.80;1.00;;;;;;5018755;28;20467;-42
2021/04/03 07:47:17;;;;;;;16.27;5.23;;;8.40;1.00;;;;;;5014180;28;20489;-42
2021/04/03 07:49:45;;;;;;;16.10;4.87;;;8.50;1.00;;;;;;5000437;28;20472;-44
2021/04/03 07:52:12;;;;;;;14.83;5.23;;;8.50;1.00;;;;;;5007700;28;20464;-45
2021/04/03 07:54:41;;;;;;;14.03;5.40;;;8.90;1.00;;;;;;5010457;28;20523;-43
2021/04/03 07:57:09;;;;;;;19.03;6.47;;;9.40;1.00;;;;;;5019467;28;20456;-43
2021/04/03 07:59:55;;;;;;;11.90;4.93;;;9.90;1.00;;;;;;5002491;28;20483;-45
2021/04/03 08:02:27;;;;;;;15.90;5.10;;;10.40;99.90;;;;;;4999359;28;20465;-46
2021/04/03 08:04:59;;;;;;;15.03;5.73;;;11.00;99.90;;;;;;5010815;28;20529;-49
2021/04/03 08:07:26;;;;;;;13.77;4.90;;;10.70;99.90;;;;;;5018363;28;20497;-43
2021/04/03 08:09:54;;;;;;;18.87;5.80;;;10.60;99.90;;;;;;5018625;28;20507;-48
2021/04/03 08:12:25;;;;;;;15.10;5.67;;;11.00;99.90;;;;;;5018525;28;20526;-45
2021/04/03 08:14:56;;;;;;;16.20;6.07;;;11.10;99.90;;;;;;5019239;28;20491;-45
2021/04/03 08:17:23;;;;;;;13.00;5.43;;;11.10;99.90;;;;;;5019175;28;20751;-42
2021/04/03 08:19:50;;;;;;;9.00;5.47;;;11.40;99.90;;;;;;5018632;28;20467;-43
2021/04/03 08:22:17;;;;;;;13.27;5.33;;;11.50;99.90;;;;;;5019224;28;20463;-43
2021/04/03 08:25:02;;;;;;;12.90;5.87;;;11.00;99.90;;;;;;5017977;28;20534;-45
2021/04/03 08:27:38;;;;;;;20.00;6.80;;;11.30;99.90;;;;;;5005167;28;20999;-46
2021/04/03 08:30:25;;;;;;;9.53;5.33;;;11.40;99.90;;;;;;5017225;28;20526;-44
2021/04/03 08:33:12;;;;;;;18.70;6.30;;;11.50;99.90;;;;;;5018640;28;20475;-47
2021/04/03 08:35:40;;;;;;;12.70;6.00;;;11.00;99.90;;;;;;5016294;28;20880;-43
2021/04/03 08:38:20;;;;;;;10.10;5.30;;;11.60;99.90;;;;;;5018060;28;20893;-44
2021/04/03 08:40:47;;;;;;;11.00;6.13;;;11.50;99.90;;;;;;5018468;28;20463;-46
2021/04/03 08:43:23;;;;;;;16.53;7.00;;;11.00;99.90;;;;;;5017728;28;20460;-43
2021/04/03 08:45:53;;;;;;;16.40;6.33;;;11.90;99.90;;;;;;5019084;28;20459;-47
2021/04/03 08:48:19;;;;;;;22.97;6.83;;;11.70;99.90;;;;;;5017537;28;20475;-44
2021/04/03 08:50:47;;;;;;;13.40;6.67;;;12.00;99.90;;;;;;5018556;28;20468;-43
2021/04/03 08:53:19;;;;;;;17.30;7.43;;;12.00;99.90;;;;;;5016861;28;20495;-46
2021/04/03 08:55:45;;;;;;;12.60;6.13;;;12.90;99.90;;;;;;5015261;28;20464;-42
2021/04/03 08:58:15;;;;;;;14.60;7.20;;;13.00;99.90;;;;;;5018179;28;20927;-43
2021/04/03 09:00:44;;;;;;;11.90;5.77;;;11.80;99.90;;;;;;5017472;28;20878;-43
2021/04/03 09:03:12;;;;;;;14.13;6.80;;;12.00;99.90;;;;;;5010680;28;20472;-46
2021/04/03 09:05:47;;;;;;;15.27;7.10;;;12.60;99.90;;;;;;5011817;28;20970;-45
2021/04/03 09:08:23;;;;;;;11.47;6.80;;;11.70;99.90;;;;;;5006605;28;20468;-49
2021/04/03 09:10:54;;;;;;;13.97;7.43;;;11.30;99.90;;;;;;5014352;28;20478;-44
2021/04/03 09:13:20;;;;;;;13.13;8.00;;;11.50;99.90;;;;;;5013865;28;20769;-43
2021/04/03 09:15:47;;;;;;;18.60;10.50;;;12.10;99.90;;;;;;5016233;28;20471;-49
2021/04/03 09:18:14;;;;;;;20.23;8.80;;;12.10;99.90;;;;;;5016674;28;20483;-45
2021/04/03 09:20:51;;;;;;;10.10;7.40;;;12.30;99.90;;;;;;5012195;28;20897;-46
2021/04/03 09:23:24;;;;;;;11.67;7.73;;;12.30;99.90;;;;;;5012306;28;20469;-45
2021/04/03 09:26:00;;;;;;;18.17;8.20;;;11.70;99.90;;;;;;5016121;28;20558;-47
2021/04/03 09:28:36;;;;;;;11.33;6.90;;;12.20;99.90;;;;;;5013412;28;20475;-42
2021/04/03 09:31:03;;;;;;;10.73;7.53;;;11.40;99.90;;;;;;5017377;28;20495;-45
2021/04/03 09:33:30;;;;;;;14.13;7.90;;;11.80;99.90;;;;;;5016586;28;20476;-45
2021/04/03 09:36:09;;;;;;;12.73;9.10;;;11.80;99.90;;;;;;5015296;28;20807;-44
2021/04/03 09:38:37;;;;;;;12.63;9.37;;;12.40;99.90;;;;;;5012355;28;20538;-42
2021/04/03 09:41:21;;;;;;;14.43;9.70;;;13.30;99.90;;;;;;5013758;28;20468;-46
2021/04/03 09:43:48;;;;;;;11.60;9.83;;;12.60;99.90;;;;;;5016946;28;20770;-49
2021/04/03 09:46:17;;;;;;;12.70;9.70;;;11.80;99.90;;;;;;5015496;28;20488;-42
2021/04/03 09:48:44;;;;;;;16.10;9.60;;;11.40;99.90;;;;;;5016833;28;20916;-48
2021/04/03 09:51:11;;;;;;;16.47;10.20;;;11.90;99.90;;;;;;5015715;28;20468;-47
2021/04/03 09:53:39;;;;;;;11.33;8.20;;;11.80;99.90;;;;;;5015259;28;20932;-44
2021/04/03 09:56:11;;;;;;;13.57;8.50;;;12.10;99.90;;;;;;5015566;28;20527;-44
2021/04/03 09:58:40;;;;;;;16.47;9.80;;;12.20;99.90;;;;;;5017150;28;20523;-46
2021/04/03 10:01:09;;;;;;;11.40;8.67;;;12.80;99.90;;;;;;5014677;28;20468;-42
2021/04/03 10:03:36;;;;;;;16.23;10.63;;;12.50;99.90;;;;;;5007849;28;20472;-49
2021/04/03 10:06:09;;;;;;;15.40;10.30;;;12.40;99.90;;;;;;5013839;28;20496;-46
2021/04/03 10:08:42;;;;;;;15.47;8.57;;;12.50;99.90;;;;;;5016467;28;20474;-48
2021/04/03 10:11:10;;;;;;;19.87;9.63;;;11.90;99.90;;;;;;5015677;28;20546;-45
2021/04/03 10:13:36;;;;;;;15.60;8.90;;;10.80;99.90;;;;;;5017363;28;20468;-43
2021/04/03 10:16:06;;;;;;;15.87;9.20;;;10.60;99.90;;;;;;5015168;28;20464;-45
2021/04/03 10:18:35;;;;;;;17.37;8.50;;;10.30;99.90;;;;;;5016848;28;20771;-46
2021/04/03 10:21:04;;;;;;;17.77;10.63;;;10.30;99.90;;;;;;5014754;28;20474;-43
2021/04/03 10:23:30;;;;;;;11.10;7.07;;;10.60;99.90;;;;;;5003591;28;20775;-42
2021/04/03 10:26:00;;;;;;;14.83;7.23;;;10.90;99.90;;;;;;5015316;28;20463;-46
2021/04/03 10:28:28;;;;;;;10.40;7.30;;;11.20;99.90;;;;;;5016001;28;20917;-46
2021/04/03 10:30:55;;;;;;;16.00;9.50;;;11.60;99.90;;;;;;5016159;28;20602;-41
2021/04/03 10:33:22;;;;;;;22.80;8.80;;;11.60;99.90;;;;;;5015519;28;20472;-45
2021/04/03 10:35:52;;;;;;;11.03;7.93;;;12.70;99.90;;;;;;5016421;28;20522;-46
2021/04/03 10:38:18;;;;;;;14.57;8.90;;;12.30;99.90;;;;;;5016455;28;20533;-47
2021/04/03 10:40:47;;;;;;;13.10;9.70;;;12.00;99.90;;;;;;5016653;28;20474;-44
2021/04/03 10:43:15;;;;;;;15.00;9.40;;;12.70;99.90;;;;;;5016555;28;20963;-42
2021/04/03 10:45:44;;;;;;;14.80;9.67;;;12.40;99.90;;;;;;5015808;28;20467;-45
2021/04/03 10:48:11;;;;;;;15.00;8.27;;;13.50;99.90;;;;;;5016125;28;20890;-46
2021/04/03 10:50:39;;;;;;;9.97;7.90;;;14.50;99.90;;;;;;5015565;28;20468;-45
2021/04/03 10:53:05;;;;;;;42.17;36.73;;;14.10;99.90;;;;;;5016084;28;20468;-43
2021/04/03 10:55:32;;;;;;;37.90;33.90;;;14.30;99.90;;;;;;5016731;28;20471;-46
2021/04/03 10:58:01;;;;;;;12.13;7.23;;;14.00;99.90;;;;;;5014714;28;20468;-44
2021/04/03 11:00:30;;;;;;;12.80;7.13;;;15.00;99.90;;;;;;5016814;28;20464;-47
2021/04/03 11:02:59;;;;;;;11.60;7.00;;;15.10;99.90;;;;;;5004760;28;20476;-46
2021/04/03 11:05:26;;;;;;;12.93;7.23;;;14.30;99.90;;;;;;5008003;28;20936;-43
2021/04/03 11:07:52;;;;;;;12.33;8.40;;;15.00;99.90;;;;;;5012611;28;20550;-46
2021/04/03 11:10:19;;;;;;;13.53;7.40;;;15.30;99.90;;;;;;5015522;28;20464;-47
2021/04/03 11:12:46;;;;;;;11.33;7.37;;;15.50;99.90;;;;;;5014008;28;20770;-46
2021/04/03 11:15:13;;;;;;;11.83;7.57;;;16.20;99.90;;;;;;5014921;28;20467;-46
2021/04/03 11:17:40;;;;;;;17.70;8.60;;;16.10;99.90;;;;;;5016755;28;20467;-49
2021/04/03 11:20:13;;;;;;;8.23;6.70;;;14.60;99.90;;;;;;5015288;28;20467;-48
2021/04/03 11:22:43;;;;;;;12.40;6.40;;;14.50;99.90;;;;;;5015607;28;20467;-46
2021/04/03 11:25:10;;;;;;;13.90;7.03;;;14.90;99.90;;;;;;5016114;28;20799;-44
2021/04/03 11:27:36;;;;;;;17.00;11.73;;;14.90;99.90;;;;;;5016650;28;20502;-46
2021/04/03 11:30:16;;;;;;;10.60;7.83;;;14.40;99.90;;;;;;5016923;28;20463;-46
2021/04/03 11:32:46;;;;;;;7.57;5.67;;;14.90;99.90;;;;;;5017131;28;20475;-48
2021/04/03 11:35:16;;;;;;;11.60;5.60;;;15.30;99.90;;;;;;5020119;28;20467;-45
2021/04/03 11:37:44;;;;;;;10.20;6.63;;;15.50;99.90;;;;;;5004972;28;20892;-43
2021/04/03 11:40:14;;;;;;;10.20;6.87;;;15.80;99.90;;;;;;5017831;28;20901;-46
2021/04/03 11:42:41;;;;;;;8.67;7.10;;;16.00;99.90;;;;;;5020317;28;20561;-47
2021/04/03 11:45:11;;;;;;;11.10;8.07;;;16.30;99.90;;;;;;5019208;28;20551;-46
2021/04/03 11:47:40;;;;;;;14.10;8.47;;;16.00;99.90;;;;;;5016525;28;20492;-46
2021/04/03 11:50:12;;;;;;;11.90;6.37;;;16.40;99.90;;;;;;5008070;28;20464;-45
2021/04/03 11:52:38;;;;;;;15.93;12.13;;;15.80;99.90;;;;;;5001995;28;20756;-44
2021/04/03 11:55:09;;;;;;;38.47;33.97;;;15.80;99.90;;;;;;5018914;28;20784;-43
2021/04/03 11:57:36;;;;;;;10.30;7.00;;;15.00;99.90;;;;;;5019992;28;20457;-45
2021/04/03 12:00:04;;;;;;;10.17;6.70;;;15.00;99.90;;;;;;5019611;28;20460;-49
2021/04/03 12:02:30;;;;;;;12.43;6.70;;;14.50;99.90;;;;;;5015034;28;20545;-46
2021/04/03 12:05:00;;;;;;;10.03;6.43;;;13.40;99.90;;;;;;5009728;28;20481;-46
2021/04/03 12:07:34;;;;;;;9.50;6.37;;;13.70;99.90;;;;;;5019188;28;20815;-43
2021/04/03 12:10:00;;;;;;;11.17;6.37;;;14.40;99.90;;;;;;5018084;28;20799;-44
2021/04/03 12:12:35;;;;;;;12.53;8.17;;;15.10;99.90;;;;;;5019646;28;20554;-43
2021/04/03 12:15:01;;;;;;;11.97;8.43;;;15.30;99.90;;;;;;5016813;28;20975;-43
2021/04/03 12:17:28;;;;;;;10.20;6.80;;;14.60;99.90;;;;;;5018099;28;20463;-43
2021/04/03 12:19:56;;;;;;;8.87;6.47;;;14.10;99.90;;;;;;5017058;28;20562;-45
2021/04/03 12:22:23;;;;;;;10.10;6.70;;;14.30;99.90;;;;;;5012759;28;20919;-47
2021/04/03 12:24:50;;;;;;;10.90;7.60;;;14.90;99.90;;;;;;5011149;28;20567;-49
2021/04/03 12:27:17;;;;;;;8.97;6.80;;;15.40;99.90;;;;;;5017488;28;20495;-44
2021/04/03 12:29:43;;;;;;;7.37;6.33;;;15.00;99.90;;;;;;5019092;28;20472;-45
2021/04/03 12:32:13;;;;;;;12.77;6.40;;;13.60;99.90;;;;;;5016784;28;20867;-49
2021/04/03 12:34:39;;;;;;;8.07;6.13;;;13.70;99.90;;;;;;5018237;28;20467;-49
2021/04/03 12:37:06;;;;;;;11.90;6.30;;;14.80;99.90;;;;;;5015202;28;20499;-51
2021/04/03 12:39:32;;;;;;;8.97;7.07;;;15.30;99.90;;;;;;5015241;28;20460;-47
2021/04/03 12:42:05;;;;;;;9.43;6.07;;;15.20;99.90;;;;;;5018048;28;20471;-50
2021/04/03 12:44:34;;;;;;;9.83;6.27;;;15.40;99.90;;;;;;5017551;28;20464;-44
2021/04/03 12:47:01;;;;;;;12.67;6.40;;;14.00;99.90;;;;;;5015312;28;20505;-47
2021/04/03 12:49:28;;;;;;;7.13;5.80;;;13.40;99.90;;;;;;5016038;28;20477;-51
2021/04/03 12:51:55;;;;;;;8.70;6.97;;;14.00;99.90;;;;;;5018973;28;20916;-47
2021/04/03 12:54:26;;;;;;;8.37;6.03;;;14.30;99.90;;;;;;5016815;28;20470;-44
2021/04/03 12:56:53;;;;;;;11.67;6.30;;;14.50;99.90;;;;;;5019125;28;20504;-46